Time;durP1;ratioP1;P1;durP2;ratioP2;P2;SDS_P1;SDS_P2;PMS_P1;PMS_P2;Temp;Humidity;BMP_temperature;BMP_pressure;BME280_temperature;BME280_humidity;BME280_pressure;Samples;Min_cycle;Max_cycle;Signal;HPM_P1;HPM_P2
2022/10/06 00:00:26;;;;;;;;;;;23.50;52.50;;;;;;1568689;74;722;-58
2022/10/06 00:02:28;;;;;;;;;;;23.50;52.50;;;;;;1555952;74;1492;-60
2022/10/06 00:04:30;;;;;;;;;;;23.50;52.50;;;;;;1560757;74;1142;-61
2022/10/06 00:06:32;;;;;;;;;;;23.50;52.80;;;;;;1543155;74;1083;-58
2022/10/06 00:08:35;;;;;;;;;;;23.40;52.70;;;;;;1569652;73;1044;-60
2022/10/06 00:10:37;;;;;;;;;;;23.30;52.80;;;;;;1586479;74;774;-58
2022/10/06 00:12:40;;;;;;;;;;;23.30;52.80;;;;;;1574559;74;774;-59
2022/10/06 00:14:42;;;;;;;;;;;23.20;53.00;;;;;;1577605;74;1945;-59
2022/10/06 00:16:44;;;;;;;;;;;23.20;53.10;;;;;;1584037;74;1559;-58
2022/10/06 00:18:46;;;;;;;;;;;23.30;52.90;;;;;;1582005;74;999;-60
2022/10/06 00:20:52;;;;;;;;;;;23.30;52.90;;;;;;1579579;74;713;-60
2022/10/06 00:22:55;;;;;;;;;;;23.30;53.00;;;;;;1572758;74;1096;-59
2022/10/06 00:24:57;;;;;;;;;;;23.40;53.10;;;;;;1569042;73;1121;-60
2022/10/06 00:26:59;;;;;;;;;;;23.50;52.80;;;;;;1575940;74;758;-58
2022/10/06 00:29:01;;;;;;;;;;;23.50;52.70;;;;;;1566569;73;1047;-58
2022/10/06 00:31:03;;;;;;;;;;;23.60;52.70;;;;;;1561928;74;1517;-58
2022/10/06 00:33:05;;;;;;;;;;;23.50;52.70;;;;;;1570464;74;1040;-61
2022/10/06 00:35:08;;;;;;;;;;;23.60;52.70;;;;;;1566190;74;1939;-58
2022/10/06 00:37:10;;;;;;;;;;;23.60;52.60;;;;;;1592427;73;710;-59
2022/10/06 00:39:12;;;;;;;;;;;23.60;52.70;;;;;;1556911;74;1057;-57
2022/10/06 00:41:14;;;;;;;;;;;23.50;53.10;;;;;;1568219;73;691;-55
2022/10/06 00:43:34;;;;;;;;;;;23.40;53.20;;;;;;1565000;74;1031;-59
2022/10/06 00:45:37;;;;;;;;;;;23.40;53.20;;;;;;1570965;74;1566;-58
2022/10/06 00:47:40;;;;;;;;;;;23.30;53.20;;;;;;1578058;75;717;-60
2022/10/06 00:49:42;;;;;;;;;;;23.30;53.40;;;;;;1576127;74;760;-60
2022/10/06 00:51:45;;;;;;;;;;;23.30;53.50;;;;;;1573092;74;927;-60
2022/10/06 00:53:48;;;;;;;;;;;23.20;53.50;;;;;;1588830;72;2107;-56
2022/10/06 00:55:50;;;;;;;;;;;23.40;53.40;;;;;;1592589;73;1167;-57
2022/10/06 00:57:52;;;;;;;;;;;23.30;53.40;;;;;;1595432;73;747;-57
2022/10/06 00:59:54;;;;;;;;;;;23.50;53.10;;;;;;1586080;73;1514;-57
2022/10/06 01:02:14;;;;;;;;;;;23.40;52.90;;;;;;1583418;73;720;-56
2022/10/06 01:04:16;;;;;;;;;;;23.30;53.40;;;;;;1597907;73;706;-53
2022/10/06 01:06:18;;;;;;;;;;;23.20;53.60;;;;;;1583843;73;1073;-57
2022/10/06 01:08:20;;;;;;;;;;;23.20;53.80;;;;;;1611967;73;776;-54
2022/10/06 01:10:22;;;;;;;;;;;23.20;53.90;;;;;;1611769;73;728;-56
2022/10/06 01:12:24;;;;;;;;;;;23.10;54.00;;;;;;1598238;73;729;-58
2022/10/06 01:14:26;;;;;;;;;;;23.10;53.90;;;;;;1599018;73;1935;-58
2022/10/06 01:16:28;;;;;;;;;;;23.10;53.90;;;;;;1602731;73;685;-57
2022/10/06 01:18:30;;;;;;;;;;;23.10;54.00;;;;;;1605914;73;790;-57
2022/10/06 01:20:32;;;;;;;;;;;23.10;54.30;;;;;;1589810;73;717;-57
2022/10/06 01:22:37;;;;;;;;;;;23.20;53.90;;;;;;1604384;73;729;-55
2022/10/06 01:24:39;;;;;;;;;;;23.20;53.80;;;;;;1598252;73;1128;-58
2022/10/06 01:26:41;;;;;;;;;;;23.30;53.70;;;;;;1596452;73;1496;-57
2022/10/06 01:28:43;;;;;;;;;;;23.40;53.40;;;;;;1586232;73;794;-57
2022/10/06 01:30:49;;;;;;;;;;;23.40;53.50;;;;;;1604367;73;803;-56
2022/10/06 01:32:49;;;;;;;;;;;23.40;53.30;;;;;;1607117;73;1494;-57
2022/10/06 01:34:51;;;;;;;;;;;23.40;53.20;;;;;;1587042;73;1937;-57
2022/10/06 01:36:54;;;;;;;;;;;23.30;53.40;;;;;;1607208;73;654;-57
2022/10/06 01:38:55;;;;;;;;;;;23.40;53.30;;;;;;1604473;73;724;-57
2022/10/06 01:40:57;;;;;;;;;;;23.30;53.30;;;;;;1592673;73;1477;-55
2022/10/06 01:42:59;;;;;;;;;;;23.30;53.40;;;;;;1600602;73;797;-56
2022/10/06 01:45:01;;;;;;;;;;;23.20;53.50;;;;;;1607011;73;1147;-59
2022/10/06 01:47:06;;;;;;;;;;;23.30;53.60;;;;;;1601558;73;766;-57
2022/10/06 01:49:08;;;;;;;;;;;23.30;53.60;;;;;;1587118;73;691;-58
2022/10/06 01:51:14;;;;;;;;;;;23.30;53.60;;;;;;1602831;73;755;-59
2022/10/06 01:53:16;;;;;;;;;;;23.30;53.60;;;;;;1608489;73;796;-59
2022/10/06 01:55:18;;;;;;;;;;;23.30;53.50;;;;;;1592145;73;1910;-59
2022/10/06 01:57:20;;;;;;;;;;;23.30;53.50;;;;;;1557623;75;599;-57
2022/10/06 01:59:23;;;;;;;;;;;23.30;53.50;;;;;;1531182;76;771;-59
2022/10/06 02:01:25;;;;;;;;;;;23.30;53.50;;;;;;1550808;75;667;-58
2022/10/06 02:03:27;;;;;;;;;;;23.30;53.40;;;;;;1554730;75;684;-60
2022/10/06 02:05:29;;;;;;;;;;;23.50;53.40;;;;;;1550550;74;1149;-58
2022/10/06 02:07:30;;;;;;;;;;;23.40;53.30;;;;;;1528074;76;757;-58
2022/10/06 02:09:32;;;;;;;;;;;23.40;53.50;;;;;;1543460;76;1553;-59
2022/10/06 02:11:35;;;;;;;;;;;23.40;53.40;;;;;;1520219;76;811;-59
2022/10/06 02:13:37;;;;;;;;;;;23.30;53.40;;;;;;1527853;76;778;-58
2022/10/06 02:15:38;;;;;;;;;;;23.30;53.40;;;;;;1551463;76;1948;-59
2022/10/06 02:17:40;;;;;;;;;;;23.40;53.50;;;;;;1575265;75;704;-59
2022/10/06 02:19:42;;;;;;;;;;;23.40;53.40;;;;;;1569488;75;718;-59
2022/10/06 02:21:44;;;;;;;;;;;23.40;53.30;;;;;;1540616;75;685;-58
2022/10/06 02:23:47;;;;;;;;;;;23.40;53.20;;;;;;1539019;76;1574;-59
2022/10/06 02:25:49;;;;;;;;;;;23.50;53.30;;;;;;1552118;74;1167;-59
2022/10/06 02:27:51;;;;;;;;;;;23.50;53.20;;;;;;1536009;76;684;-59
2022/10/06 02:29:54;;;;;;;;;;;23.50;53.40;;;;;;1521064;76;756;-59
2022/10/06 02:31:56;;;;;;;;;;;23.50;53.20;;;;;;1531434;76;757;-59
2022/10/06 02:33:58;;;;;;;;;;;23.60;52.90;;;;;;1560749;75;795;-58
2022/10/06 02:36:00;;;;;;;;;;;23.60;52.80;;;;;;1560768;75;1940;-58
2022/10/06 02:38:02;;;;;;;;;;;23.70;52.80;;;;;;1556090;75;1562;-59
2022/10/06 02:40:04;;;;;;;;;;;23.70;52.70;;;;;;1564705;74;825;-59
2022/10/06 02:42:06;;;;;;;;;;;23.70;52.80;;;;;;1546069;75;737;-59
2022/10/06 02:44:08;;;;;;;;;;;23.70;52.80;;;;;;1559627;75;863;-57
2022/10/06 02:46:11;;;;;;;;;;;23.60;52.60;;;;;;1553306;75;1068;-56
2022/10/06 02:48:13;;;;;;;;;;;23.60;53.10;;;;;;1558724;75;797;-57
2022/10/06 02:50:15;;;;;;;;;;;23.50;53.70;;;;;;1545086;75;805;-57
2022/10/06 02:52:16;;;;;;;;;;;23.40;53.50;;;;;;1561951;74;1556;-54
2022/10/06 02:54:18;;;;;;;;;;;23.30;53.60;;;;;;1538263;76;787;-57
2022/10/06 02:56:21;;;;;;;;;;;23.40;53.60;;;;;;1549725;76;1947;-57
2022/10/06 02:58:23;;;;;;;;;;;23.50;53.50;;;;;;1533500;76;755;-57
2022/10/06 03:00:25;;;;;;;;;;;23.60;53.20;;;;;;1543163;76;735;-57
2022/10/06 03:02:28;;;;;;;;;;;23.60;53.10;;;;;;1536097;75;718;-57
2022/10/06 03:04:30;;;;;;;;;;;23.50;53.10;;;;;;1540979;76;1146;-53
2022/10/06 03:06:32;;;;;;;;;;;23.60;53.20;;;;;;1550392;76;1523;-55
2022/10/06 03:08:34;;;;;;;;;;;23.60;53.30;;;;;;1535890;76;726;-53
2022/10/06 03:10:35;;;;;;;;;;;23.60;53.10;;;;;;1533813;76;750;-57
2022/10/06 03:12:38;;;;;;;;;;;23.80;53.10;;;;;;1531982;76;797;-57
2022/10/06 03:14:39;;;;;;;;;;;23.60;53.10;;;;;;1527838;76;1918;-57
2022/10/06 03:16:42;;;;;;;;;;;23.60;53.00;;;;;;1540014;76;697;-57
2022/10/06 03:18:44;;;;;;;;;;;23.60;53.10;;;;;;1540598;76;755;-58
2022/10/06 03:20:46;;;;;;;;;;;23.70;53.30;;;;;;1544993;76;1536;-57
2022/10/06 03:22:48;;;;;;;;;;;23.60;53.10;;;;;;1533675;76;816;-57
2022/10/06 03:24:50;;;;;;;;;;;23.60;53.10;;;;;;1542735;76;1211;-56
2022/10/06 03:26:52;;;;;;;;;;;23.70;53.10;;;;;;1529484;76;687;-57
2022/10/06 03:28:54;;;;;;;;;;;23.60;52.80;;;;;;1537152;76;794;-56
2022/10/06 03:30:58;;;;;;;;;;;23.70;53.00;;;;;;1542390;76;707;-57
2022/10/06 03:33:00;;;;;;;;;;;23.70;52.80;;;;;;1541356;75;2025;-56
2022/10/06 03:35:02;;;;;;;;;;;23.80;52.80;;;;;;1546634;74;1940;-54
2022/10/06 03:37:04;;;;;;;;;;;23.70;52.80;;;;;;1541794;76;802;-57
2022/10/06 03:39:06;;;;;;;;;;;23.70;52.80;;;;;;1528153;75;790;-57
2022/10/06 03:41:12;;;;;;;;;;;23.70;52.70;;;;;;1544893;75;800;-57
2022/10/06 03:43:14;;;;;;;;;;;23.70;52.80;;;;;;1543317;75;1813;-58
2022/10/06 03:45:16;;;;;;;;;;;23.80;52.90;;;;;;1535271;76;1130;-57
2022/10/06 03:47:18;;;;;;;;;;;23.70;52.80;;;;;;1575146;74;1351;-57
2022/10/06 03:49:19;;;;;;;;;;;23.70;52.70;;;;;;1567239;74;813;-57
2022/10/06 03:51:23;;;;;;;;;;;23.60;52.90;;;;;;1570325;74;714;-56
2022/10/06 03:53:26;;;;;;;;;;;23.80;52.90;;;;;;1538854;76;1013;-57
2022/10/06 03:55:28;;;;;;;;;;;23.80;52.90;;;;;;1523356;76;1956;-57
2022/10/06 03:57:30;;;;;;;;;;;23.70;53.00;;;;;;1517071;78;703;-57
2022/10/06 03:59:33;;;;;;;;;;;23.70;53.00;;;;;;1537822;75;788;-57
2022/10/06 04:01:36;;;;;;;;;;;23.70;52.90;;;;;;1548318;75;1555;-57
2022/10/06 04:03:39;;;;;;;;;;;23.80;52.90;;;;;;1551189;75;790;-57
2022/10/06 04:05:42;;;;;;;;;;;23.80;52.90;;;;;;1545404;75;1062;-54
2022/10/06 04:07:44;;;;;;;;;;;23.70;53.00;;;;;;1554321;75;1563;-58
2022/10/06 04:09:46;;;;;;;;;;;23.70;53.00;;;;;;1530795;77;750;-57
2022/10/06 04:11:48;;;;;;;;;;;23.60;53.10;;;;;;1521674;77;891;-57
2022/10/06 04:13:55;;;;;;;;;;;23.60;53.40;;;;;;1534482;77;1040;-58
2022/10/06 04:15:57;;;;;;;;;;;23.60;53.40;;;;;;1524248;77;1933;-58
2022/10/06 04:17:59;;;;;;;;;;;23.50;53.60;;;;;;1526875;77;749;-58
2022/10/06 04:20:01;;;;;;;;;;;23.50;53.90;;;;;;1536574;77;811;-57
2022/10/06 04:22:03;;;;;;;;;;;23.60;53.50;;;;;;1536728;77;791;-58
2022/10/06 04:24:05;;;;;;;;;;;23.60;53.30;;;;;;1524565;77;750;-58
2022/10/06 04:26:10;;;;;;;;;;;23.60;53.30;;;;;;1523623;77;1085;-58
2022/10/06 04:28:12;;;;;;;;;;;23.60;53.40;;;;;;1526213;77;833;-57
2022/10/06 04:30:14;;;;;;;;;;;23.50;53.60;;;;;;1513166;77;1558;-58
2022/10/06 04:32:16;;;;;;;;;;;23.50;53.80;;;;;;1536600;77;787;-58
2022/10/06 04:34:19;;;;;;;;;;;23.40;53.70;;;;;;1527800;76;740;-57
2022/10/06 04:36:22;;;;;;;;;;;23.40;53.90;;;;;;1531049;77;1920;-58
2022/10/06 04:38:24;;;;;;;;;;;23.40;53.90;;;;;;1523817;77;683;-57
2022/10/06 04:40:26;;;;;;;;;;;23.40;54.00;;;;;;1527319;77;713;-56
2022/10/06 04:42:28;;;;;;;;;;;23.50;54.00;;;;;;1536180;77;668;-56
2022/10/06 04:44:30;;;;;;;;;;;23.50;53.90;;;;;;1524131;76;1593;-55
2022/10/06 04:46:32;;;;;;;;;;;23.50;53.80;;;;;;1531521;77;676;-55
2022/10/06 04:48:34;;;;;;;;;;;23.50;53.90;;;;;;1536439;76;862;-53
2022/10/06 04:50:36;;;;;;;;;;;23.60;53.80;;;;;;1528359;77;728;-56
2022/10/06 04:52:38;;;;;;;;;;;23.40;53.80;;;;;;1531320;77;709;-55
2022/10/06 04:54:39;;;;;;;;;;;23.50;54.10;;;;;;1528415;77;1048;-55
2022/10/06 04:56:41;;;;;;;;;;;23.40;53.80;;;;;;1547615;76;1946;-56
2022/10/06 04:58:44;;;;;;;;;;;23.50;53.80;;;;;;1553120;76;1378;-55
2022/10/06 05:00:47;;;;;;;;;;;23.60;53.80;;;;;;1571774;75;895;-55
2022/10/06 05:02:49;;;;;;;;;;;23.50;53.80;;;;;;1545641;76;730;-55
2022/10/06 05:04:51;;;;;;;;;;;23.50;53.70;;;;;;1560856;75;1156;-53
2022/10/06 05:06:53;;;;;;;;;;;23.50;53.70;;;;;;1566148;75;700;-57
2022/10/06 05:08:56;;;;;;;;;;;23.60;53.80;;;;;;1564980;75;746;-57
2022/10/06 05:11:01;;;;;;;;;;;23.60;53.70;;;;;;1566597;75;763;-57
2022/10/06 05:13:04;;;;;;;;;;;23.50;54.00;;;;;;1562927;75;1522;-57
2022/10/06 05:15:08;;;;;;;;;;;23.50;54.20;;;;;;1557502;75;1165;-51
2022/10/06 05:17:10;;;;;;;;;;;23.50;54.10;;;;;;1531135;76;1912;-53
2022/10/06 05:19:12;;;;;;;;;;;23.50;54.80;;;;;;1542333;76;730;-56
2022/10/06 05:21:15;;;;;;;;;;;23.40;54.70;;;;;;1534460;76;720;-56
2022/10/06 05:23:17;;;;;;;;;;;23.30;54.80;;;;;;1536972;76;734;-57
2022/10/06 05:25:19;;;;;;;;;;;23.40;54.50;;;;;;1549425;76;1091;-56
2022/10/06 05:27:21;;;;;;;;;;;23.50;54.40;;;;;;1540850;75;1524;-55
2022/10/06 05:29:23;;;;;;;;;;;23.60;54.10;;;;;;1538179;76;776;-51
2022/10/06 05:31:28;;;;;;;;;;;23.50;54.00;;;;;;1533189;76;805;-55
2022/10/06 05:33:31;;;;;;;;;;;23.50;54.00;;;;;;1535973;76;905;-55
2022/10/06 05:35:33;;;;;;;;;;;23.50;54.10;;;;;;1555268;76;1942;-55
2022/10/06 05:37:35;;;;;;;;;;;23.50;54.00;;;;;;1535382;76;719;-55
2022/10/06 05:39:37;;;;;;;;;;;23.60;53.90;;;;;;1555098;75;719;-54
2022/10/06 05:41:39;;;;;;;;;;;23.50;53.90;;;;;;1529551;76;767;-55
2022/10/06 05:43:40;;;;;;;;;;;23.40;53.90;;;;;;1534932;76;766;-56
2022/10/06 05:45:53;;;;;;;;;;;23.40;53.90;;;;;;1547929;76;1104;-54
2022/10/06 05:47:55;;;;;;;;;;;23.40;53.90;;;;;;1545015;76;1826;-55
2022/10/06 05:49:57;;;;;;;;;;;23.40;54.00;;;;;;1554887;76;753;-55
2022/10/06 05:51:59;;;;;;;;;;;23.20;54.00;;;;;;1539779;76;686;-54
2022/10/06 05:54:01;;;;;;;;;;;23.20;54.10;;;;;;1535214;75;1530;-56
2022/10/06 05:56:09;;;;;;;;;;;23.20;54.20;;;;;;1545642;76;1943;-56
2022/10/06 05:58:11;;;;;;;;;;;23.10;54.30;;;;;;1552030;75;677;-55
2022/10/06 06:00:13;;;;;;;;;;;23.10;54.20;;;;;;1533151;76;828;-58
2022/10/06 06:02:14;;;;;;;;;;;23.10;54.30;;;;;;1541073;76;768;-53
2022/10/06 06:04:16;;;;;;;;;;;23.00;54.30;;;;;;1540832;76;912;-57
2022/10/06 06:06:19;;;;;;;;;;;23.00;54.30;;;;;;1548653;75;1115;-54
2022/10/06 06:08:21;;;;;;;;;;;22.90;54.40;;;;;;1562647;75;1541;-57
2022/10/06 06:10:23;;;;;;;;;;;23.00;54.40;;;;;;1555380;75;696;-57
2022/10/06 06:12:25;;;;;;;;;;;22.90;54.40;;;;;;1573564;75;710;-54
2022/10/06 06:16:46;;;;;;;;;;;22.90;54.40;;;;;;1534132;76;1898;-54
2022/10/06 06:18:48;;;;;;;;;;;22.90;54.40;;;;;;1516393;76;734;-55
2022/10/06 06:20:52;;;;;;;;;;;22.90;54.40;;;;;;1553653;75;781;-55
2022/10/06 06:22:54;;;;;;;;;;;22.80;54.30;;;;;;1529931;77;1901;-55
2022/10/06 06:24:55;;;;;;;;;;;22.90;54.40;;;;;;1528994;77;1091;-52
2022/10/06 06:26:57;;;;;;;;;;;22.90;54.40;;;;;;1522650;77;834;-55
2022/10/06 06:29:05;;;;;;;;;;;22.90;54.40;;;;;;1518497;77;769;-55
2022/10/06 06:31:07;;;;;;;;;;;22.80;54.40;;;;;;1520212;77;1612;-55
2022/10/06 06:33:09;;;;;;;;;;;22.80;54.40;;;;;;1523145;77;761;-55
2022/10/06 06:35:11;;;;;;;;;;;22.80;54.30;;;;;;1527425;77;1125;-54
2022/10/06 06:37:14;;;;;;;;;;;22.80;54.40;;;;;;1525819;77;1943;-55
2022/10/06 06:39:18;;;;;;;;;;;22.70;54.40;;;;;;1536112;77;794;-55
2022/10/06 06:41:20;;;;;;;;;;;22.80;54.30;;;;;;1523192;76;1701;-53
2022/10/06 06:43:21;;;;;;;;;;;22.80;54.40;;;;;;1534735;77;800;-55
2022/10/06 06:45:23;;;;;;;;;;;22.70;54.40;;;;;;1543146;77;1220;-56
2022/10/06 06:47:25;;;;;;;;;;;22.70;54.40;;;;;;1540796;76;790;-55
2022/10/06 06:49:28;;;;;;;;;;;22.70;54.30;;;;;;1526051;76;807;-56
2022/10/06 06:51:33;;;;;;;;;;;22.70;54.40;;;;;;1525463;76;1537;-55
2022/10/06 06:53:35;;;;;;;;;;;22.80;54.30;;;;;;1561201;72;223327;-64
2022/10/06 06:55:37;;;;;;;;;;;22.70;54.30;;;;;;1529709;75;777;-64
2022/10/06 06:57:41;;;;;;;;;;;22.70;54.30;;;;;;1523665;75;1929;-64
2022/10/06 06:59:44;;;;;;;;;;;22.70;54.30;;;;;;1546815;75;1386;-65
2022/10/06 07:01:47;;;;;;;;;;;22.70;54.30;;;;;;1588659;73;659;-63
2022/10/06 07:03:53;;;;;;;;;;;22.70;54.40;;;;;;1576070;73;1190;-64
2022/10/06 07:05:57;;;;;;;;;;;22.70;54.40;;;;;;1559327;75;1601;-65
2022/10/06 07:07:59;;;;;;;;;;;22.60;54.20;;;;;;1566460;74;1961;-63
2022/10/06 07:10:01;;;;;;;;;;;22.70;54.20;;;;;;1565772;74;749;-63
2022/10/06 07:12:02;;;;;;;;;;;22.70;54.20;;;;;;1564558;74;765;-63
2022/10/06 07:14:05;;;;;;;;;;;22.60;54.20;;;;;;1565619;74;1139;-64
2022/10/06 07:25:30;;;;;;;;;;;22.60;54.00;;;;;;1566656;74;1626;-65
2022/10/06 07:27:34;;;;;;;;;;;22.60;53.90;;;;;;1583260;74;701;-67
2022/10/06 07:29:36;;;;;;;;;;;22.50;53.90;;;;;;1555903;74;1627;-64
2022/10/06 07:31:38;;;;;;;;;;;22.60;53.90;;;;;;1564799;74;824;-64
2022/10/06 07:33:40;;;;;;;;;;;22.50;53.90;;;;;;1567534;74;1569;-64
2022/10/06 07:35:42;;;;;;;;;;;22.50;53.80;;;;;;1574323;74;766;-64
2022/10/06 07:37:44;;;;;;;;;;;22.60;53.90;;;;;;1566226;74;1922;-64
2022/10/06 07:39:48;;;;;;;;;;;22.60;53.70;;;;;;1574316;74;898;-64
2022/10/06 07:41:49;;;;;;;;;;;22.60;53.70;;;;;;1566140;74;1672;-66
2022/10/06 07:43:54;;;;;;;;;;;22.60;53.70;;;;;;1570808;73;1165;-64
2022/10/06 07:45:56;;;;;;;;;;;22.50;53.70;;;;;;1575295;74;831;-67
2022/10/06 07:47:58;;;;;;;;;;;22.60;53.70;;;;;;1567106;74;1539;-69
2022/10/06 07:50:00;;;;;;;;;;;22.50;53.60;;;;;;1570996;74;812;-63
2022/10/06 07:52:02;;;;;;;;;;;22.60;53.60;;;;;;1560159;74;772;-63
2022/10/06 07:54:04;;;;;;;;;;;22.60;53.60;;;;;;1572372;74;1146;-65
2022/10/06 07:56:06;;;;;;;;;;;22.60;53.50;;;;;;1569088;74;679;-65
2022/10/06 07:58:12;;;;;;;;;;;22.60;53.50;;;;;;1567755;74;1958;-65
2022/10/06 08:00:19;;;;;;;;;;;22.60;53.50;;;;;;1561810;74;758;-65
2022/10/06 08:02:23;;;;;;;;;;;22.60;53.50;;;;;;1567413;74;1545;-65
2022/10/06 08:04:24;;;;;;;;;;;22.60;53.50;;;;;;1579596;74;1648;-65
2022/10/06 08:06:26;;;;;;;;;;;22.60;53.40;;;;;;1574234;74;773;-64
2022/10/06 08:08:29;;;;;;;;;;;22.60;53.40;;;;;;1566461;74;690;-66
2022/10/06 08:10:31;;;;;;;;;;;22.60;53.40;;;;;;1577900;73;943;-65
2022/10/06 08:12:33;;;;;;;;;;;22.70;53.50;;;;;;1556592;74;722;-65
2022/10/06 08:14:35;;;;;;;;;;;22.60;53.30;;;;;;1564640;74;1285;-65
2022/10/06 08:16:37;;;;;;;;;;;22.60;53.30;;;;;;1566377;74;1928;-65
2022/10/06 08:18:39;;;;;;;;;;;22.60;53.30;;;;;;1564624;74;637;-65
2022/10/06 08:20:40;;;;;;;;;;;22.60;53.20;;;;;;1571892;74;745;-66
2022/10/06 08:22:42;;;;;;;;;;;22.60;53.10;;;;;;1557753;74;722;-65
2022/10/06 08:24:44;;;;;;;;;;;22.60;53.10;;;;;;1560382;74;1064;-65
2022/10/06 08:26:46;;;;;;;;;;;22.60;53.10;;;;;;1564033;74;790;-65
2022/10/06 08:28:48;;;;;;;;;;;22.70;53.10;;;;;;1566929;74;1523;-67
2022/10/06 08:30:51;;;;;;;;;;;22.70;53.10;;;;;;1566997;74;668;-66
2022/10/06 08:32:53;;;;;;;;;;;22.70;53.10;;;;;;1565471;75;808;-65
2022/10/06 08:34:55;;;;;;;;;;;22.70;53.10;;;;;;1566406;74;1119;-66
2022/10/06 08:36:57;;;;;;;;;;;22.70;53.00;;;;;;1566655;74;1911;-65
2022/10/06 08:39:00;;;;;;;;;;;22.80;52.90;;;;;;1564683;74;768;-65
2022/10/06 08:41:02;;;;;;;;;;;22.80;52.80;;;;;;1557267;74;820;-65
2022/10/06 08:43:04;;;;;;;;;;;22.80;52.70;;;;;;1561003;73;1546;-63
2022/10/06 08:45:13;;;;;;;;;;;22.80;52.70;;;;;;1590272;73;640;-65
2022/10/06 08:47:18;;;;;;;;;;;22.80;52.70;;;;;;1571297;74;728;-65
2022/10/06 08:49:21;;;;;;;;;;;22.80;52.70;;;;;;1566294;74;720;-65
2022/10/06 08:51:27;;;;;;;;;;;22.80;52.60;;;;;;1565561;75;775;-66
2022/10/06 08:53:31;;;;;;;;;;;22.90;52.60;;;;;;1569407;74;1956;-64
2022/10/06 08:55:40;;;;;;;;;;;22.90;52.60;;;;;;1552279;74;1812;-65
2022/10/06 08:58:02;;;;;;;;;;;22.90;52.60;;;;;;1548510;74;1946;-64
2022/10/06 09:00:06;;;;;;;;;;;22.90;52.60;;;;;;1574165;74;1712;-65
2022/10/06 09:02:14;;;;;;;;;;;22.90;52.50;;;;;;1548038;74;1587;-66
2022/10/06 09:04:17;;;;;;;;;;;22.90;52.40;;;;;;1562323;74;1801;-65
2022/10/06 09:06:23;;;;;;;;;;;22.90;52.30;;;;;;1567708;74;2022;-65
2022/10/06 09:08:36;;;;;;;;;;;22.90;52.30;;;;;;1568002;74;1055;-65
2022/10/06 09:10:39;;;;;;;;;;;22.90;52.30;;;;;;1569393;74;1549;-65
2022/10/06 09:12:50;;;;;;;;;;;23.00;52.20;;;;;;1547670;75;783;-62
2022/10/06 09:14:54;;;;;;;;;;;23.00;52.10;;;;;;1546425;74;1083;-65
2022/10/06 09:16:59;;;;;;;;;;;23.00;52.00;;;;;;1561309;74;1910;-65
2022/10/06 09:19:01;;;;;;;;;;;23.00;51.90;;;;;;1555907;74;1688;-65
2022/10/06 09:21:05;;;;;;;;;;;23.00;51.90;;;;;;1578452;74;712;-67
2022/10/06 09:23:08;;;;;;;;;;;23.10;52.00;;;;;;1565368;74;1678;-65
2022/10/06 09:25:15;;;;;;;;;;;23.10;51.80;;;;;;1570738;74;1533;-66
2022/10/06 09:27:19;;;;;;;;;;;23.10;51.80;;;;;;1571647;74;779;-66
2022/10/06 09:29:21;;;;;;;;;;;23.10;51.70;;;;;;1578985;74;1654;-65
2022/10/06 09:31:23;;;;;;;;;;;23.10;51.70;;;;;;1558629;74;739;-65
2022/10/06 09:33:25;;;;;;;;;;;23.10;51.60;;;;;;1571296;74;1148;-65
2022/10/06 09:35:27;;;;;;;;;;;23.10;51.50;;;;;;1578251;74;644;-65
2022/10/06 09:37:29;;;;;;;;;;;23.20;51.40;;;;;;1580075;74;1931;-65
2022/10/06 09:39:35;;;;;;;;;;;23.20;51.40;;;;;;1584587;73;1593;-65
2022/10/06 09:41:40;;;;;;;;;;;23.20;51.40;;;;;;1574600;74;1723;-65
2022/10/06 09:43:44;;;;;;;;;;;23.20;51.30;;;;;;1579119;73;1190;-65
2022/10/06 09:45:46;;;;;;;;;;;23.20;51.30;;;;;;1568580;73;1696;-65
2022/10/06 09:47:49;;;;;;;;;;;23.20;51.30;;;;;;1569442;74;896;-65
2022/10/06 09:49:58;;;;;;;;;;;23.20;51.20;;;;;;1556724;74;746;-65
2022/10/06 09:52:17;;;;;;;;;;;23.20;51.20;;;;;;1552932;74;1758;-66
2022/10/06 09:54:16;;;;;;;;;;;23.20;51.10;;;;;;1550617;74;1628;-65
2022/10/06 09:56:18;;;;;;;;;;;23.20;51.10;;;;;;1571664;74;718;-66
2022/10/06 09:58:24;;;;;;;;;;;23.20;51.10;;;;;;1573907;74;1918;-65
2022/10/06 10:00:34;;;;;;;;;;;23.20;51.10;;;;;;1563897;74;752;-65
2022/10/06 10:02:36;;;;;;;;;;;23.20;51.00;;;;;;1571113;74;752;-65
2022/10/06 10:04:39;;;;;;;;;;;23.20;51.00;;;;;;1562895;74;1182;-66
2022/10/06 10:06:41;;;;;;;;;;;23.20;50.90;;;;;;1572140;74;679;-65
2022/10/06 10:08:43;;;;;;;;;;;23.20;50.90;;;;;;1576931;74;1548;-66
2022/10/06 10:10:45;;;;;;;;;;;23.20;50.90;;;;;;1546751;74;775;-67
2022/10/06 10:12:54;;;;;;;;;;;23.30;50.80;;;;;;1573246;74;732;-65
2022/10/06 10:15:00;;;;;;;;;;;23.20;50.70;;;;;;1564559;75;1077;-65
2022/10/06 10:17:17;;;;;;;;;;;23.20;50.70;;;;;;1576723;74;764;-66
2022/10/06 10:19:26;;;;;;;;;;;23.20;50.60;;;;;;1576722;74;1797;-66
2022/10/06 10:21:30;;;;;;;;;;;23.20;50.70;;;;;;1562857;74;1569;-66
2022/10/06 10:23:37;;;;;;;;;;;23.20;50.70;;;;;;1560095;73;1205;-66
2022/10/06 10:25:49;;;;;;;;;;;23.20;50.70;;;;;;1578142;74;883;-66
2022/10/06 10:28:02;;;;;;;;;;;23.20;50.70;;;;;;1568503;74;757;-64
2022/10/06 10:30:04;;;;;;;;;;;23.20;50.70;;;;;;1558759;74;1632;-68
2022/10/06 10:32:11;;;;;;;;;;;23.20;50.70;;;;;;1563692;74;1888;-66
2022/10/06 10:34:15;;;;;;;;;;;23.20;50.60;;;;;;1565483;74;1252;-66
2022/10/06 10:36:17;;;;;;;;;;;23.20;50.60;;;;;;1568863;74;1815;-66
2022/10/06 10:38:19;;;;;;;;;;;23.20;50.60;;;;;;1557918;74;1917;-66
2022/10/06 10:40:29;;;;;;;;;;;23.20;50.60;;;;;;1574091;74;778;-68
2022/10/06 10:42:33;;;;;;;;;;;23.30;50.70;;;;;;1568718;74;782;-67
2022/10/06 10:44:36;;;;;;;;;;;23.20;50.60;;;;;;1556881;74;1182;-67
2022/10/06 10:46:46;;;;;;;;;;;23.20;50.50;;;;;;1578583;74;741;-66
2022/10/06 10:48:52;;;;;;;;;;;23.30;50.60;;;;;;1567837;74;2066;-67
2022/10/06 10:50:56;;;;;;;;;;;23.30;50.70;;;;;;1548603;74;1568;-67
2022/10/06 10:52:59;;;;;;;;;;;23.30;50.70;;;;;;1573150;74;1785;-66
2022/10/06 10:55:14;;;;;;;;;;;23.30;50.70;;;;;;1567880;74;1163;-67
2022/10/06 10:57:16;;;;;;;;;;;23.20;50.60;;;;;;1564247;74;1421;-67
2022/10/06 10:59:20;;;;;;;;;;;23.30;50.80;;;;;;1572193;74;1924;-66
2022/10/06 11:01:35;;;;;;;;;;;23.30;50.80;;;;;;1571222;74;773;-67
2022/10/06 11:03:37;;;;;;;;;;;23.30;50.80;;;;;;1560212;74;1753;-67
2022/10/06 11:05:41;;;;;;;;;;;23.30;50.90;;;;;;1549670;74;711;-67
2022/10/06 11:07:51;;;;;;;;;;;23.30;50.80;;;;;;1565589;74;2046;-66
2022/10/06 11:09:54;;;;;;;;;;;23.30;50.80;;;;;;1570657;74;672;-66
2022/10/06 11:12:07;;;;;;;;;;;23.30;50.80;;;;;;1568384;74;709;-66
2022/10/06 11:14:22;;;;;;;;;;;23.30;50.80;;;;;;1577716;74;2148;-65
2022/10/06 11:16:26;;;;;;;;;;;23.30;50.70;;;;;;1558176;74;1890;-66
2022/10/06 11:18:46;;;;;;;;;;;23.30;50.80;;;;;;1570383;74;1921;-67
2022/10/06 11:20:49;;;;;;;;;;;23.30;50.80;;;;;;1570169;74;726;-65
2022/10/06 11:22:53;;;;;;;;;;;23.30;50.90;;;;;;1553523;74;780;-63
2022/10/06 11:25:03;;;;;;;;;;;23.30;50.90;;;;;;1559687;74;1822;-65
2022/10/06 11:27:07;;;;;;;;;;;23.30;50.90;;;;;;1561316;74;748;-66
2022/10/06 11:29:13;;;;;;;;;;;23.30;50.80;;;;;;1575494;74;2057;-66
2022/10/06 11:31:20;;;;;;;;;;;23.30;50.80;;;;;;1574481;74;1576;-66
2022/10/06 11:33:23;;;;;;;;;;;23.30;50.90;;;;;;1571326;74;1135;-65
2022/10/06 11:35:29;;;;;;;;;;;23.30;50.80;;;;;;1568771;74;1839;-66
2022/10/06 11:37:43;;;;;;;;;;;23.30;50.80;;;;;;1551633;74;1324;-65
2022/10/06 11:40:05;;;;;;;;;;;23.30;50.80;;;;;;1573419;74;1819;-67
2022/10/06 11:42:09;;;;;;;;;;;23.30;50.80;;;;;;1557507;74;1642;-65
2022/10/06 11:44:16;;;;;;;;;;;23.30;50.80;;;;;;1562963;74;1274;-66
2022/10/06 11:46:28;;;;;;;;;;;23.30;50.90;;;;;;1571677;74;1601;-65
2022/10/06 11:48:30;;;;;;;;;;;23.30;50.80;;;;;;1571935;74;655;-66
2022/10/06 11:50:36;;;;;;;;;;;23.30;50.80;;;;;;1570906;74;836;-67
2022/10/06 11:52:44;;;;;;;;;;;23.30;50.80;;;;;;1567241;74;817;-66
2022/10/06 11:54:47;;;;;;;;;;;23.30;50.80;;;;;;1544111;74;1167;-65
2022/10/06 11:56:49;;;;;;;;;;;23.30;50.80;;;;;;1571685;74;818;-66
2022/10/06 11:58:53;;;;;;;;;;;23.30;50.80;;;;;;1563223;74;1927;-66
2022/10/06 12:00:55;;;;;;;;;;;23.30;50.70;;;;;;1551931;74;1551;-65
2022/10/06 12:02:56;;;;;;;;;;;23.30;50.70;;;;;;1572573;74;754;-66
2022/10/06 12:05:16;;;;;;;;;;;23.30;50.70;;;;;;1579070;73;1130;-67
2022/10/06 12:07:18;;;;;;;;;;;23.30;50.70;;;;;;1572579;74;906;-67
2022/10/06 12:09:29;;;;;;;;;;;23.30;50.80;;;;;;1589948;74;787;-67
2022/10/06 12:11:37;;;;;;;;;;;23.30;50.70;;;;;;1552060;74;929;-67
2022/10/06 12:13:44;;;;;;;;;;;23.40;50.80;;;;;;1553984;73;1649;-66
2022/10/06 12:15:47;;;;;;;;;;;23.30;50.90;;;;;;1548294;74;1013;-67
2022/10/06 12:17:57;;;;;;;;;;;23.30;50.90;;;;;;1571230;74;1945;-66
2022/10/06 12:20:01;;;;;;;;;;;23.30;50.80;;;;;;1555691;74;769;-67
2022/10/06 12:22:21;;;;;;;;;;;23.30;50.90;;;;;;1571116;74;1476;-68
2022/10/06 12:24:40;;;;;;;;;;;23.30;50.90;;;;;;1547125;74;1146;-66
2022/10/06 12:26:47;;;;;;;;;;;23.30;50.80;;;;;;1573730;74;759;-66